createdAt,value
2022-12-03T00:00:42.787Z,2.37
2022-12-03T00:03:09.456Z,2.46
2022-12-03T00:05:36.115Z,2.42
2022-12-03T00:08:02.981Z,2.46
2022-12-03T00:10:29.583Z,2.46
2022-12-03T00:12:58.961Z,2.47
2022-12-03T00:15:25.585Z,2.43
2022-12-03T00:18:01.307Z,2.47
2022-12-03T00:20:28.019Z,2.46
2022-12-03T00:22:54.618Z,2.38
2022-12-03T00:25:21.148Z,2.47
2022-12-03T00:27:49.881Z,2.40
2022-12-03T00:30:16.846Z,2.48
2022-12-03T00:32:45.640Z,2.48
2022-12-03T00:35:12.304Z,2.48
2022-12-03T00:37:38.923Z,2.48
2022-12-03T00:40:06.738Z,2.40
2022-12-03T00:42:33.323Z,2.46
2022-12-03T00:44:59.891Z,2.43
2022-12-03T00:47:28.882Z,2.48
2022-12-03T00:49:55.549Z,2.49
2022-12-03T00:52:22.138Z,2.48
2022-12-03T00:54:48.931Z,2.37
2022-12-03T00:57:15.494Z,2.50
2022-12-03T00:59:42.088Z,2.50
2022-12-03T01:02:09.201Z,2.51
2022-12-03T01:04:36.005Z,2.46
2022-12-03T01:07:04.856Z,2.50
2022-12-03T01:09:31.501Z,2.46
2022-12-03T01:11:58.139Z,2.48
2022-12-03T01:14:24.830Z,2.47
2022-12-03T01:16:51.614Z,2.51
2022-12-03T01:19:19.408Z,2.50
2022-12-03T01:21:49.542Z,2.50
2022-12-03T01:24:21.613Z,2.48
2022-12-03T01:26:48.238Z,2.40
2022-12-03T01:29:16.158Z,2.45
2022-12-03T01:32:03.872Z,2.47
2022-12-03T01:34:30.446Z,2.45
2022-12-03T01:36:57.145Z,2.45
2022-12-03T01:39:23.756Z,2.35
2022-12-03T01:41:52.526Z,2.43
2022-12-03T01:44:24.449Z,2.43
2022-12-03T01:46:54.209Z,2.49
2022-12-03T01:49:25.301Z,2.51
2022-12-03T01:51:55.362Z,2.49
2022-12-03T01:54:26.865Z,2.45
2022-12-03T01:56:55.308Z,2.42
2022-12-03T01:59:29.346Z,2.53
2022-12-03T02:01:58.135Z,2.53
2022-12-03T02:04:25.498Z,2.51
2022-12-03T02:06:52.383Z,2.52
2022-12-03T02:09:18.913Z,2.54
2022-12-03T02:11:49.609Z,2.47
2022-12-03T02:14:20.116Z,2.47
2022-12-03T02:16:46.756Z,2.55
2022-12-03T02:19:27.950Z,2.48
2022-12-03T02:22:03.920Z,2.53
2022-12-03T02:24:53.859Z,2.54
2022-12-03T02:27:20.603Z,2.52
2022-12-03T02:29:47.177Z,2.56
2022-12-03T02:32:13.722Z,2.56
2022-12-03T02:34:45.478Z,2.55
2022-12-03T02:37:17.578Z,2.51
2022-12-03T02:39:48.909Z,2.59
2022-12-03T02:42:34.544Z,2.58
2022-12-03T02:45:24.060Z,2.57
2022-12-03T02:47:59.144Z,2.56
2022-12-03T02:50:30.487Z,2.53
2022-12-03T02:52:59.986Z,2.55
2022-12-03T02:55:33.453Z,2.48
2022-12-03T02:58:04.843Z,2.55
2022-12-03T03:00:32.109Z,2.47
2022-12-03T03:02:59.059Z,2.59
2022-12-03T03:05:25.706Z,2.53
2022-12-03T03:07:52.614Z,2.61
2022-12-03T03:10:23.658Z,2.56
2022-12-03T03:12:54.204Z,2.59
2022-12-03T03:15:21.549Z,2.52
2022-12-03T03:17:48.278Z,2.60
2022-12-03T03:20:15.427Z,2.62
2022-12-03T03:22:43.146Z,2.57
2022-12-03T03:25:13.435Z,2.61
2022-12-03T03:27:41.839Z,2.63
2022-12-03T03:30:09.843Z,2.55
2022-12-03T03:32:37.399Z,2.59
2022-12-03T03:35:06.837Z,2.60
2022-12-03T03:37:33.713Z,2.59
2022-12-03T03:40:00.306Z,2.58
2022-12-03T03:42:27.196Z,2.56
2022-12-03T03:44:54.009Z,2.54
2022-12-03T03:47:23.725Z,2.55
2022-12-03T03:49:51.018Z,2.52
2022-12-03T03:52:19.774Z,2.58
2022-12-03T03:54:47.247Z,2.58
2022-12-03T03:57:14.388Z,2.56
2022-12-03T03:59:41.445Z,2.55
2022-12-03T04:02:17.688Z,2.48
2022-12-03T04:04:44.593Z,2.54
2022-12-03T04:07:11.115Z,2.54
2022-12-03T04:09:40.678Z,2.55
2022-12-03T04:12:25.733Z,2.59
2022-12-03T04:14:58.903Z,2.53
2022-12-03T04:17:25.643Z,2.53
2022-12-03T04:19:54.541Z,2.58
2022-12-03T04:22:39.891Z,2.58
2022-12-03T04:25:29.691Z,2.56
2022-12-03T04:28:14.805Z,2.51
2022-12-03T04:30:41.486Z,2.49
2022-12-03T04:33:26.711Z,2.57
2022-12-03T04:35:53.421Z,2.56
2022-12-03T04:38:19.993Z,2.54
2022-12-03T04:41:01.770Z,2.58
2022-12-03T04:43:29.606Z,2.56
2022-12-03T04:45:56.329Z,2.57
2022-12-03T04:48:22.936Z,2.41
2022-12-03T04:50:49.698Z,2.52
2022-12-03T04:53:19.060Z,2.55
2022-12-03T04:55:45.628Z,2.50
2022-12-03T04:58:14.438Z,2.49
2022-12-03T05:00:41.020Z,2.55
2022-12-03T05:03:07.652Z,2.55
2022-12-03T05:05:34.207Z,2.58
2022-12-03T05:08:00.869Z,2.57
2022-12-03T05:10:27.516Z,2.58
2022-12-03T05:12:56.647Z,2.58
2022-12-03T05:15:23.222Z,2.59
2022-12-03T05:17:52.106Z,2.48
2022-12-03T05:20:37.146Z,2.53
2022-12-03T05:23:03.763Z,2.51
2022-12-03T05:25:30.302Z,2.55
2022-12-03T05:27:56.905Z,2.46
2022-12-03T05:30:23.591Z,2.49
2022-12-03T05:32:50.189Z,2.49
2022-12-03T05:35:17.036Z,2.52
2022-12-03T05:37:43.635Z,2.42
2022-12-03T05:40:11.043Z,2.51
2022-12-03T05:42:57.114Z,2.51
2022-12-03T05:45:38.210Z,2.51
2022-12-03T05:48:09.503Z,2.50
2022-12-03T05:50:40.323Z,2.51
2022-12-03T05:53:07.073Z,2.47
2022-12-03T05:55:33.654Z,2.50
2022-12-03T05:58:00.323Z,2.46
2022-12-03T06:00:42.433Z,2.50
2022-12-03T06:03:12.049Z,2.46
2022-12-03T06:05:38.758Z,2.48
2022-12-03T06:08:05.385Z,2.45
2022-12-03T06:10:32.539Z,2.45
2022-12-03T06:12:59.145Z,2.43
2022-12-03T06:15:27.921Z,2.41
2022-12-03T06:17:54.539Z,2.46
2022-12-03T06:20:21.502Z,2.46
2022-12-03T06:22:48.364Z,2.45
2022-12-03T06:25:17.741Z,2.42
2022-12-03T06:27:44.726Z,2.44
2022-12-03T06:30:12.563Z,2.44
2022-12-03T06:32:39.138Z,2.40
2022-12-03T06:35:05.824Z,2.43
2022-12-03T06:37:34.654Z,2.41
2022-12-03T06:40:03.883Z,2.42
2022-12-03T06:42:30.487Z,2.33
2022-12-03T06:44:57.142Z,2.29
2022-12-03T06:47:23.927Z,2.36
2022-12-03T06:49:50.549Z,2.38
2022-12-03T06:52:17.087Z,2.38
2022-12-03T06:54:43.739Z,2.38
2022-12-03T06:57:11.315Z,2.36
2022-12-03T06:59:38.326Z,2.33
2022-12-03T07:02:05.339Z,2.40
2022-12-03T07:04:34.152Z,2.41
2022-12-03T07:07:00.713Z,2.37
2022-12-03T07:09:29.777Z,2.44
2022-12-03T07:11:56.434Z,2.29
2022-12-03T07:14:23.070Z,2.43
2022-12-03T07:16:49.618Z,2.43
2022-12-03T07:19:16.805Z,2.44
2022-12-03T07:21:43.585Z,2.44
2022-12-03T07:24:10.964Z,2.36
2022-12-03T07:26:37.568Z,2.40
2022-12-03T07:29:04.149Z,2.45
2022-12-03T07:31:30.896Z,2.37
2022-12-03T07:33:57.539Z,2.38
2022-12-03T07:36:24.069Z,2.44
2022-12-03T07:38:50.657Z,2.32
2022-12-03T07:41:19.043Z,2.39
2022-12-03T07:43:47.367Z,2.39
2022-12-03T07:46:14.227Z,2.37
2022-12-03T07:48:40.784Z,2.36
2022-12-03T07:51:08.184Z,2.36
2022-12-03T07:53:36.214Z,2.42
2022-12-03T07:56:06.501Z,2.23
2022-12-03T07:58:33.114Z,2.36
2022-12-03T08:00:59.819Z,2.40
2022-12-03T08:03:26.555Z,2.39
2022-12-03T08:05:55.146Z,2.35
2022-12-03T08:08:21.804Z,2.38
2022-12-03T08:10:48.545Z,2.36
2022-12-03T08:13:16.934Z,2.33
2022-12-03T08:15:44.601Z,2.31
2022-12-03T08:18:21.441Z,2.35
2022-12-03T08:20:50.541Z,2.37
2022-12-03T08:23:24.211Z,2.39
2022-12-03T08:25:52.364Z,2.40
2022-12-03T08:28:26.771Z,2.35
2022-12-03T08:31:12.559Z,2.44
2022-12-03T08:33:42.052Z,2.42
2022-12-03T08:36:19.930Z,2.40
2022-12-03T08:38:55.772Z,2.44
2022-12-03T08:41:43.234Z,2.42
2022-12-03T08:44:36.326Z,2.43
2022-12-03T08:47:08.874Z,2.41
2022-12-03T08:49:39.288Z,2.40
2022-12-03T08:52:33.285Z,2.43
2022-12-03T08:55:05.346Z,2.40
2022-12-03T08:57:34.617Z,2.40
2022-12-03T09:00:12.102Z,2.60
2022-12-03T09:02:48.549Z,2.53
2022-12-03T09:05:29.367Z,2.48
2022-12-03T09:07:56.017Z,2.48
2022-12-03T09:10:22.555Z,2.54
2022-12-03T09:12:49.057Z,2.54
2022-12-03T09:15:15.789Z,2.52
2022-12-03T09:17:42.435Z,2.50
2022-12-03T09:20:09.483Z,2.53
2022-12-03T09:22:36.257Z,2.52
2022-12-03T09:25:02.857Z,2.51
2022-12-03T09:27:29.377Z,2.47
2022-12-03T09:29:58.155Z,2.51
2022-12-03T09:32:24.890Z,2.43
2022-12-03T09:34:51.869Z,2.46
2022-12-03T09:37:18.717Z,2.49
2022-12-03T09:39:45.269Z,2.50
2022-12-03T09:42:12.076Z,2.41
2022-12-03T09:44:39.019Z,2.40
2022-12-03T09:47:06.908Z,2.45
2022-12-03T09:49:37.145Z,2.42
2022-12-03T09:52:05.808Z,2.47
2022-12-03T09:54:35.076Z,2.42
2022-12-03T09:57:03.697Z,2.48
2022-12-03T09:59:33.508Z,2.48
2022-12-03T10:02:02.956Z,2.49
2022-12-03T10:04:29.887Z,2.50
2022-12-03T10:06:58.644Z,2.54
2022-12-03T10:09:28.546Z,2.52
2022-12-03T10:11:57.411Z,2.32
2022-12-03T10:14:24.782Z,2.52
2022-12-03T10:16:53.572Z,2.44
2022-12-03T10:19:26.577Z,2.46
2022-12-03T10:21:55.894Z,2.44
2022-12-03T10:24:33.485Z,2.45
2022-12-03T10:27:21.769Z,2.38
2022-12-03T10:29:56.588Z,2.44
2022-12-03T10:32:42.869Z,2.33
2022-12-03T10:35:15.712Z,2.40
2022-12-03T10:38:02.675Z,2.42
2022-12-03T10:40:32.631Z,2.41
2022-12-03T10:43:18.562Z,2.40
2022-12-03T10:46:12.839Z,2.39
2022-12-03T10:48:39.763Z,2.45
2022-12-03T10:51:09.540Z,2.42
2022-12-03T10:53:38.678Z,2.46
2022-12-03T10:56:07.520Z,2.46
2022-12-03T10:58:39.069Z,2.47
2022-12-03T11:01:26.540Z,2.44
2022-12-03T11:03:56.636Z,2.39
2022-12-03T11:06:23.662Z,2.36
2022-12-03T11:08:58.467Z,2.34
2022-12-03T11:11:29.647Z,2.37
2022-12-03T11:14:00.548Z,2.37
2022-12-03T11:16:42.010Z,2.41
2022-12-03T11:19:19.167Z,2.41
2022-12-03T11:22:06.982Z,2.40
2022-12-03T11:24:35.783Z,2.40
2022-12-03T11:27:02.317Z,2.43
2022-12-03T11:29:56.977Z,2.42
2022-12-03T11:32:38.699Z,2.43
2022-12-03T11:35:13.426Z,2.41
2022-12-03T11:37:40.227Z,2.44
2022-12-03T11:40:18.797Z,2.38
2022-12-03T11:42:47.576Z,2.40
2022-12-03T11:45:22.626Z,2.45
2022-12-03T11:47:58.520Z,2.51
2022-12-03T11:50:45.142Z,2.46
2022-12-03T11:53:20.243Z,2.48
2022-12-03T11:55:52.176Z,2.55
2022-12-03T11:58:25.850Z,2.58
2022-12-03T12:00:55.719Z,2.55
2022-12-03T12:03:32.877Z,2.61
2022-12-03T12:06:08.362Z,2.61
2022-12-03T12:08:41.061Z,2.58
2022-12-03T12:11:20.721Z,2.61
2022-12-03T12:13:47.179Z,2.60
2022-12-03T12:16:14.025Z,2.59
2022-12-03T12:18:55.049Z,2.56
2022-12-03T12:21:47.618Z,2.55
2022-12-03T12:24:47.011Z,2.39
2022-12-03T12:27:45.183Z,2.55
2022-12-03T12:30:19.934Z,2.53
2022-12-03T12:33:01.853Z,2.55
2022-12-03T12:35:32.988Z,2.60
2022-12-03T12:38:20.896Z,2.59
2022-12-03T12:40:49.439Z,2.61
2022-12-03T12:43:29.636Z,2.54
2022-12-03T12:46:13.515Z,2.52
2022-12-03T12:48:45.997Z,2.44
2022-12-03T12:51:18.858Z,2.48
2022-12-03T12:53:46.062Z,2.51
2022-12-03T12:56:24.626Z,2.55
2022-12-03T12:58:52.084Z,2.54
2022-12-03T13:01:31.749Z,2.50
2022-12-03T13:03:59.613Z,2.55
2022-12-03T13:06:28.605Z,2.58
2022-12-03T13:08:55.619Z,2.60
2022-12-03T13:11:45.724Z,2.55
2022-12-03T13:14:19.384Z,2.53
2022-12-03T13:16:47.728Z,2.53
2022-12-03T13:19:23.764Z,2.53
2022-12-03T13:21:56.488Z,2.42
2022-12-03T13:24:42.729Z,2.46
2022-12-03T13:27:18.349Z,2.46
2022-12-03T13:29:47.476Z,2.45
2022-12-03T13:32:18.599Z,2.45
2022-12-03T13:34:46.667Z,2.41
2022-12-03T13:37:23.346Z,2.46
2022-12-03T13:39:53.317Z,2.43
2022-12-03T13:42:39.264Z,2.42
2022-12-03T13:45:15.084Z,2.42
2022-12-03T13:48:08.566Z,2.40
2022-12-03T13:50:41.290Z,2.45
2022-12-03T13:53:20.041Z,2.41
2022-12-03T13:55:49.549Z,2.37
2022-12-03T13:58:16.271Z,2.36
2022-12-03T14:00:50.370Z,2.40
2022-12-03T14:03:17.591Z,2.35
2022-12-03T14:05:44.219Z,2.37
2022-12-03T14:08:10.863Z,2.33
2022-12-03T14:10:39.721Z,2.33
2022-12-03T14:13:06.342Z,2.30
2022-12-03T14:15:32.862Z,2.40
2022-12-03T14:17:59.436Z,2.33
2022-12-03T14:20:26.077Z,2.41
2022-12-03T14:22:57.739Z,2.43
2022-12-03T14:25:28.319Z,2.33
2022-12-03T14:27:54.897Z,2.40
2022-12-03T14:30:21.524Z,2.41
2022-12-03T14:32:50.631Z,2.38
2022-12-03T14:35:17.494Z,2.40
2022-12-03T14:37:46.344Z,2.39
2022-12-03T14:40:16.629Z,2.41
2022-12-03T14:42:47.800Z,2.40
2022-12-03T14:45:14.379Z,2.37
2022-12-03T14:47:40.965Z,2.40
2022-12-03T14:50:08.252Z,2.39
2022-12-03T14:52:34.899Z,2.36
2022-12-03T14:55:30.437Z,2.35
2022-12-03T15:00:55.603Z,2.18
2022-12-03T15:03:35.857Z,2.21
2022-12-03T15:06:02.473Z,2.13
2022-12-03T15:08:29.082Z,2.18
2022-12-03T15:10:55.719Z,2.13
2022-12-03T15:13:22.349Z,2.10
2022-12-03T15:15:48.888Z,2.16
2022-12-03T15:18:15.476Z,2.16
2022-12-03T15:20:42.115Z,2.12
2022-12-03T15:23:12.791Z,2.16
2022-12-03T15:25:40.991Z,2.23
2022-12-03T15:28:07.616Z,2.14
2022-12-03T15:30:36.854Z,2.21
2022-12-03T15:33:04.299Z,2.15
2022-12-03T15:35:31.126Z,2.12
2022-12-03T15:37:57.840Z,2.06
2022-12-03T15:40:25.647Z,2.13
2022-12-03T15:42:52.652Z,2.14
2022-12-03T15:45:19.423Z,2.12
2022-12-03T15:47:46.123Z,2.08
2022-12-03T15:50:14.183Z,2.06
2022-12-03T15:52:43.232Z,2.07
2022-12-03T15:55:10.702Z,2.01
2022-12-03T15:57:39.655Z,2.10
2022-12-03T16:00:07.298Z,2.02
2022-12-03T16:02:34.664Z,2.05
2022-12-03T16:05:04.748Z,2.07
2022-12-03T16:07:31.363Z,2.05
2022-12-03T16:09:57.956Z,2.06
2022-12-03T16:12:24.929Z,2.03
2022-12-03T16:14:51.640Z,1.95
2022-12-03T16:17:18.213Z,1.98
2022-12-03T16:19:45.319Z,2.00
2022-12-03T16:22:14.704Z,2.00
2022-12-03T16:24:41.498Z,1.97
2022-12-03T16:27:08.551Z,1.93
2022-12-03T16:29:37.587Z,1.91
2022-12-03T16:32:04.847Z,1.91
2022-12-03T16:34:31.426Z,1.94
2022-12-03T16:36:57.932Z,1.96
2022-12-03T16:39:24.627Z,1.91
2022-12-03T16:41:51.420Z,1.91
2022-12-03T16:44:31.494Z,1.94
2022-12-03T16:47:01.609Z,1.92
2022-12-03T16:49:28.600Z,1.88
2022-12-03T16:51:55.182Z,1.80
2022-12-03T16:54:24.331Z,1.81
2022-12-03T16:56:50.932Z,1.85
2022-12-03T16:59:17.508Z,1.78
2022-12-03T17:01:46.214Z,1.86
2022-12-03T17:04:12.841Z,1.84
2022-12-03T17:06:39.450Z,1.75
2022-12-03T17:09:06.094Z,1.76
2022-12-03T17:11:32.631Z,1.76
2022-12-03T17:13:59.211Z,1.62
2022-12-03T17:16:28.336Z,1.73
2022-12-03T17:18:54.933Z,1.75
2022-12-03T17:21:23.751Z,1.77
2022-12-03T17:23:51.072Z,1.78
2022-12-03T17:26:18.466Z,1.78
2022-12-03T17:28:45.912Z,1.68
2022-12-03T17:31:15.301Z,1.71
2022-12-03T17:33:42.027Z,1.73
2022-12-03T17:36:11.764Z,1.71
2022-12-03T17:38:39.513Z,1.68
2022-12-03T17:41:07.490Z,1.69
2022-12-03T17:43:34.102Z,1.68
2022-12-03T17:46:05.036Z,1.66
2022-12-03T17:48:31.740Z,1.66
2022-12-03T17:50:58.584Z,1.61
2022-12-03T17:53:27.728Z,1.58
2022-12-03T17:55:54.930Z,1.62
2022-12-03T17:58:23.851Z,1.66
2022-12-03T18:00:54.014Z,1.67
2022-12-03T18:03:23.848Z,1.61
2022-12-03T18:05:50.464Z,1.64
2022-12-03T18:08:17.192Z,1.67
2022-12-03T18:10:43.913Z,1.59
2022-12-03T18:13:10.482Z,1.63
2022-12-03T18:15:37.034Z,1.62
2022-12-03T18:18:03.831Z,1.58
2022-12-03T18:20:30.745Z,1.51
2022-12-03T18:22:59.236Z,1.52
2022-12-03T18:25:26.700Z,1.33
2022-12-03T18:27:53.233Z,1.50
2022-12-03T18:30:19.906Z,1.48
2022-12-03T18:32:46.574Z,1.44
2022-12-03T18:35:13.275Z,1.53
2022-12-03T18:37:40.081Z,1.45
2022-12-03T18:40:13.021Z,1.57
2022-12-03T18:42:44.731Z,1.53
2022-12-03T18:45:12.943Z,1.46
2022-12-03T18:47:39.655Z,1.33
2022-12-03T18:50:07.134Z,1.50
2022-12-03T18:52:33.893Z,1.52
2022-12-03T18:55:00.438Z,1.44
2022-12-03T18:57:27.075Z,1.57
2022-12-03T18:59:53.874Z,1.56
2022-12-03T19:02:54.184Z,1.51
2022-12-03T19:05:12.651Z,1.48
2022-12-03T19:07:39.317Z,1.27
2022-12-03T19:10:06.524Z,1.49
2022-12-03T19:12:35.976Z,1.48
2022-12-03T19:15:04.323Z,1.50
2022-12-03T19:17:31.243Z,1.50
2022-12-03T19:20:02.590Z,1.44
2022-12-03T19:22:29.335Z,1.49
2022-12-03T19:24:55.840Z,1.46
2022-12-03T19:27:22.415Z,1.32
2022-12-03T19:29:51.677Z,1.35
2022-12-03T19:32:18.395Z,1.41
2022-12-03T19:34:44.950Z,1.38
2022-12-03T19:37:11.625Z,1.31
2022-12-03T19:39:38.142Z,1.46
2022-12-03T19:42:04.930Z,1.43
2022-12-03T19:44:33.945Z,1.48
2022-12-03T19:47:02.667Z,1.46
2022-12-03T19:49:29.296Z,1.45
2022-12-03T19:51:58.325Z,1.41
2022-12-03T19:54:24.968Z,1.41
2022-12-03T19:56:51.593Z,1.41
2022-12-03T19:59:20.611Z,1.38
2022-12-03T20:01:47.384Z,1.42
2022-12-03T20:04:14.168Z,1.43
2022-12-03T20:06:40.822Z,1.34
2022-12-03T20:09:11.448Z,1.35
2022-12-03T20:11:39.479Z,1.41
2022-12-03T20:14:08.932Z,1.32
2022-12-03T20:16:36.173Z,1.34
2022-12-03T20:19:09.095Z,1.39
2022-12-03T20:21:36.878Z,1.40
2022-12-03T20:24:04.461Z,1.33
2022-12-03T20:26:31.688Z,1.31
2022-12-03T20:28:59.018Z,1.42
2022-12-03T20:31:28.726Z,1.43
2022-12-03T20:33:57.927Z,1.34
2022-12-03T20:36:25.630Z,1.41
2022-12-03T20:38:56.966Z,1.39
2022-12-03T20:41:23.879Z,1.29
2022-12-03T20:43:53.256Z,1.31
2022-12-03T20:46:22.824Z,1.27
2022-12-03T20:48:53.974Z,1.33
2022-12-03T20:51:22.294Z,1.33
2022-12-03T20:53:49.325Z,1.23
2022-12-03T20:56:27.228Z,1.23
2022-12-03T20:58:54.283Z,1.28
2022-12-03T21:01:26.459Z,1.28
2022-12-03T21:03:55.299Z,1.27
2022-12-03T21:06:23.513Z,1.23
2022-12-03T21:08:52.931Z,1.20
2022-12-03T21:11:24.244Z,1.27
2022-12-03T21:13:51.269Z,1.23
2022-12-03T21:16:39.467Z,1.24
2022-12-03T21:19:07.917Z,1.21
2022-12-03T21:21:35.511Z,1.23
2022-12-03T21:24:02.134Z,1.27
2022-12-03T21:26:28.816Z,1.14
2022-12-03T21:28:55.524Z,1.12
2022-12-03T21:31:26.047Z,1.20
2022-12-03T21:33:57.196Z,1.17
2022-12-03T21:36:24.663Z,1.23
2022-12-03T21:38:51.728Z,1.20
2022-12-03T21:41:20.924Z,1.21
2022-12-03T21:43:47.505Z,1.15
2022-12-03T21:47:09.146Z,1.19
2022-12-03T21:49:06.391Z,1.17
2022-12-03T21:51:33.349Z,0.96
2022-12-03T21:53:59.955Z,1.18
2022-12-03T21:56:26.537Z,1.18
2022-12-03T21:58:53.090Z,1.16
2022-12-03T22:01:23.808Z,1.13
2022-12-03T22:03:52.847Z,1.12
2022-12-03T22:06:20.227Z,1.13
2022-12-03T22:08:47.645Z,1.12
2022-12-03T22:11:20.574Z,0.95
2022-12-03T22:13:47.684Z,0.93
2022-12-03T22:16:19.599Z,0.93
2022-12-03T22:18:46.209Z,0.99
2022-12-03T22:21:15.496Z,1.07
2022-12-03T22:23:42.273Z,1.09
2022-12-03T22:26:12.784Z,1.06
2022-12-03T22:28:43.070Z,1.02
2022-12-03T22:31:10.058Z,1.00
2022-12-03T22:33:37.145Z,1.00
2022-12-03T22:36:14.682Z,0.97
2022-12-03T22:38:47.797Z,1.00
2022-12-03T22:41:19.232Z,1.01
2022-12-03T22:43:46.519Z,1.02
2022-12-03T22:46:13.511Z,0.90
2022-12-03T22:48:42.171Z,1.05
2022-12-03T22:51:22.750Z,0.98
2022-12-03T22:54:00.853Z,1.07
2022-12-03T22:56:29.623Z,1.07
2022-12-03T22:58:56.177Z,1.11
2022-12-03T23:01:33.873Z,1.13
2022-12-03T23:04:01.265Z,1.14
2022-12-03T23:06:28.516Z,1.07
2022-12-03T23:08:55.760Z,1.15
2022-12-03T23:11:25.005Z,1.13
2022-12-03T23:13:54.543Z,1.16
2022-12-03T23:16:27.490Z,1.09
2022-12-03T23:18:56.799Z,1.13
2022-12-03T23:21:29.323Z,1.10
2022-12-03T23:23:57.223Z,1.06
2022-12-03T23:26:29.529Z,1.03
2022-12-03T23:28:56.906Z,1.08
2022-12-03T23:31:31.869Z,1.09
2022-12-03T23:33:59.520Z,1.09
2022-12-03T23:36:30.502Z,1.11
2022-12-03T23:38:57.432Z,1.12
2022-12-03T23:41:25.053Z,1.08
2022-12-03T23:43:52.390Z,1.13
2022-12-03T23:46:22.126Z,1.13
2022-12-03T23:48:49.152Z,1.04
2022-12-03T23:51:21.889Z,1.09
2022-12-03T23:53:50.716Z,1.11
2022-12-03T23:56:21.983Z,1.02
2022-12-03T23:58:49.162Z,1.08
